Adamsville, Rhode Island
Current Conditions -  °F | °C
As of 7:53 AM on Saturday 25 Oct 2014 (Local Time) from KUUU Reporting Station
Clear Clear  
Wind Chill: 50°   Ceiling: Unl
Heat Index: 50°   Visibility: 10mi
Dew Point: 41°   Wind: 3mph
Humidity: 71%   Direction: NA
Pressure: 29.79"   Gusts: NA
Location:  41.55°N, 71.13°W
Report Text: KUUU 251153Z AUTO VRB03KT 10SM CLR 10/05 A2979 RMK AO2 SLP086 T01000050 10106 20067 50004
Loading
Personal Weather Stations






























Interactive Weather Map
Tropical Storm Tracking
New forecast layout! Learn more

10-Day Weather Forecast

Advertisements
Track Severe Weather on mobile